^^
Grace C. Lehan Memorial Weather Station Historical Data
Daily Summary for December 19, 2021 Units:  Both    English   Metric
Daily Weekly Monthly Yearly
  High: Low: Average:
Temperature: 38.2 °F /  3.4 °C 26 °F /  -3.3 °C 34.2 °F /  1.2 °C
Dew Point: 36.9 °F /  2.7 °C 20.4 °F /  -6.4 °C 29.2 °F /  -1.6 °C
Humidity: 96% 68.2% 82%
Wind Speed: 12.2mph /  19.6km/h - 3.6mph /  5.8km/h
Wind Gust: 25mph /  40.2km/h - -
Wind- - NNW
Pressure: 30.23 in /  1023.6 hPa 29.77 in /  1008 hPa -
Precipitation: 0.16 in /  4.06 mm    
 
 
Tabular Data for December 19, 2021
Time Temperature Dew Point Pressure Wind Wind Speed Wind Gust Humidity Rainfall Rate (Hourly) solar
00:04 36.6 °F /  2.6 °C 35.3 °F /  1.8 °C 29.79in /  1008.7hPa NW 1.7mph /  2.7km/h 6mph /  9.7km/h 95% 0.11in /  2.79mm 0 W/m2
00:09 36.6 °F /  2.6 °C 35.3 °F /  1.8 °C 29.79in /  1008.7hPa NNW 1.9mph /  3.1km/h 5mph /  8km/h 95% 0.13in /  3.3mm 0 W/m2
00:14 36.6 °F /  2.6 °C 35.3 °F /  1.8 °C 29.79in /  1008.7hPa NNW 3mph /  4.8km/h 7mph /  11.3km/h 95% 0.15in /  3.81mm 0 W/m2
00:19 36.5 °F /  2.5 °C 35.2 °F /  1.8 °C 29.78in /  1008.4hPa NNW 1.6mph /  2.6km/h 7mph /  11.3km/h 95% 0.16in /  4.06mm 0 W/m2
00:24 36.5 °F /  2.5 °C 35.2 °F /  1.8 °C 29.79in /  1008.7hPa NNW 3.3mph /  5.3km/h 9mph /  14.5km/h 95% 0.17in /  4.32mm 0 W/m2
00:29 36.5 °F /  2.5 °C 35.2 °F /  1.8 °C 29.79in /  1008.7hPa NNW 1.3mph /  2.1km/h 9mph /  14.5km/h 95% 0.17in /  4.32mm 0 W/m2
00:34 36.5 °F /  2.5 °C 35.2 °F /  1.8 °C 29.79in /  1008.7hPa NNW 1.1mph /  1.8km/h 9mph /  14.5km/h 95% 0.17in /  4.32mm 0 W/m2
00:39 36.5 °F /  2.5 °C 35.2 °F /  1.8 °C 29.79in /  1008.7hPa NNW 1.1mph /  1.8km/h 6mph /  9.7km/h 95% 0.18in /  4.57mm 0 W/m2
00:44 36.5 °F /  2.5 °C 35.2 °F /  1.8 °C 29.79in /  1008.7hPa NW 0.9mph /  1.4km/h 6mph /  9.7km/h 95% 0.18in /  4.57mm 0 W/m2
00:49 36.6 °F /  2.6 °C 35.3 °F /  1.8 °C 29.79in /  1008.7hPa NW 0.3mph /  0.5km/h 6mph /  9.7km/h 95% 0.18in /  4.57mm 0 W/m2
00:54 36.6 °F /  2.6 °C 35.3 °F /  1.8 °C 29.79in /  1008.7hPa Calm   6mph /  9.7km/h 95% 0.19in /  4.83mm 0 W/m2
00:59 36.6 °F /  2.6 °C 35.3 °F /  1.8 °C 29.79in /  1008.7hPa NW 0.4mph /  0.6km/h 6mph /  9.7km/h 95% 0.19in /  4.83mm 0 W/m2
01:04 36.6 °F /  2.6 °C 35.3 °F /  1.8 °C 29.79in /  1008.7hPa NW 1.1mph /  1.8km/h 6mph /  9.7km/h 95% 0.19in /  4.83mm 0 W/m2
01:09 36.7 °F /  2.6 °C 35.4 °F /  1.9 °C 29.80in /  1009hPa NW 2.1mph /  3.4km/h 5mph /  8km/h 95% 0.10in /  2.54mm 0 W/m2
01:14 36.8 °F /  2.7 °C 35.5 °F /  1.9 °C 29.80in /  1009hPa NNW 0.9mph /  1.4km/h 5mph /  8km/h 95% 0.11in /  2.79mm 0 W/m2
01:19 36.8 °F /  2.7 °C 35.5 °F /  1.9 °C 29.79in /  1008.7hPa NNW 1mph /  1.6km/h 7mph /  11.3km/h 95% 0.11in /  2.79mm 0 W/m2
01:24 36.8 °F /  2.7 °C 35.5 °F /  1.9 °C 29.79in /  1008.7hPa NNW 0.5mph /  0.8km/h 7mph /  11.3km/h 95% 0.11in /  2.79mm 0 W/m2
01:29 36.8 °F /  2.7 °C 35.5 °F /  1.9 °C 29.78in /  1008.4hPa NNW 1.1mph /  1.8km/h 7mph /  11.3km/h 95% 0.11in /  2.79mm 0 W/m2
01:34 36.8 °F /  2.7 °C 35.5 °F /  1.9 °C 29.78in /  1008.4hPa NNW 0.4mph /  0.6km/h 7mph /  11.3km/h 95% 0.11in /  2.79mm 0 W/m2
01:39 36.9 °F /  2.7 °C 35.6 °F /  2 °C 29.78in /  1008.4hPa NNW 0.1mph /  0.2km/h 3mph /  4.8km/h 95% 0.03in /  0.76mm 0 W/m2
01:44 36.9 °F /  2.7 °C 35.6 °F /  2 °C 29.77in /  1008hPa North 1.1mph /  1.8km/h 7mph /  11.3km/h 95% 0.03in /  0.76mm 0 W/m2
01:49 36.9 °F /  2.7 °C 35.6 °F /  2 °C 29.78in /  1008.4hPa North 0.2mph /  0.3km/h 7mph /  11.3km/h 95% 0.04in /  1.02mm 0 W/m2
01:54 37 °F /  2.8 °C 35.7 °F /  2.1 °C 29.78in /  1008.4hPa North 1.4mph /  2.3km/h 7mph /  11.3km/h 95% 0.04in /  1.02mm 0 W/m2
01:59 37 °F /  2.8 °C 35.7 °F /  2.1 °C 29.78in /  1008.4hPa NNW 1.2mph /  1.9km/h 7mph /  11.3km/h 95% 0.04in /  1.02mm 0 W/m2
02:04 37 °F /  2.8 °C 35.7 °F /  2.1 °C 29.78in /  1008.4hPa NNW 0.3mph /  0.5km/h 7mph /  11.3km/h 95% 0.04in /  1.02mm 0 W/m2
02:09 37 °F /  2.8 °C 35.7 °F /  2.1 °C 29.78in /  1008.4hPa NNW 0.6mph /  1km/h 5mph /  8km/h 95% 0.03in /  0.76mm 0 W/m2
02:14 37 °F /  2.8 °C 35.7 °F /  2.1 °C 29.78in /  1008.4hPa Calm   5mph /  8km/h 95% 0.03in /  0.76mm 0 W/m2
02:19 37 °F /  2.8 °C 35.7 °F /  2.1 °C 29.78in /  1008.4hPa NNW 0.1mph /  0.2km/h 5mph /  8km/h 95% 0.04in /  1.02mm 0 W/m2
02:24 37 °F /  2.8 °C 35.7 °F /  2.1 °C 29.79in /  1008.7hPa NNW 1.1mph /  1.8km/h 5mph /  8km/h 95% 0.04in /  1.02mm 0 W/m2
02:29 37 °F /  2.8 °C 35.7 °F /  2.1 °C 29.80in /  1009hPa NNW 0.2mph /  0.3km/h 5mph /  8km/h 95% 0.05in /  1.27mm 0 W/m2
02:34 37 °F /  2.8 °C 35.8 °F /  2.1 °C 29.80in /  1009hPa NNW 0.3mph /  0.5km/h 5mph /  8km/h 95.3% 0.05in /  1.27mm 0 W/m2
02:39 37.1 °F /  2.8 °C 36.1 °F /  2.3 °C 29.80in /  1009hPa NNW 0.7mph /  1.1km/h 5mph /  8km/h 96% 0.04in /  1.02mm 0 W/m2
02:44 37.1 °F /  2.8 °C 36.1 °F /  2.3 °C 29.80in /  1009hPa NNW 0.1mph /  0.2km/h 5mph /  8km/h 96% 0.04in /  1.02mm 0 W/m2
02:49 37.2 °F /  2.9 °C 36.1 °F /  2.3 °C 29.79in /  1008.7hPa NNW 0.5mph /  0.8km/h 5mph /  8km/h 96% 0.04in /  1.02mm 0 W/m2
02:54 37.2 °F /  2.9 °C 36.2 °F /  2.3 °C 29.80in /  1009hPa NNW 0.8mph /  1.3km/h 6mph /  9.7km/h 96% 0.04in /  1.02mm 0 W/m2
02:59 37.2 °F /  2.9 °C 36.2 °F /  2.3 °C 29.80in /  1009hPa NNW 1.6mph /  2.6km/h 6mph /  9.7km/h 96% 0.04in /  1.02mm 0 W/m2
03:04 37.2 °F /  2.9 °C 36.2 °F /  2.3 °C 29.80in /  1009hPa NNW 0.3mph /  0.5km/h 6mph /  9.7km/h 96% 0.04in /  1.02mm 0 W/m2
03:09 37.3 °F /  2.9 °C 36.3 °F /  2.4 °C 29.80in /  1009hPa NNW 0.6mph /  1km/h 4mph /  6.4km/h 96% 0.03in /  0.76mm 0 W/m2
03:14 37.3 °F /  2.9 °C 36.2 °F /  2.3 °C 29.80in /  1009hPa NNW 0.5mph /  0.8km/h 4mph /  6.4km/h 95.8% 0.03in /  0.76mm 0 W/m2
03:19 37.4 °F /  3 °C 36.2 °F /  2.3 °C 29.81in /  1009.4hPa NNW 0.3mph /  0.5km/h 4mph /  6.4km/h 95.5% 0.03in /  0.76mm 0 W/m2
03:24 37.4 °F /  3 °C 36.1 °F /  2.3 °C 29.79in /  1008.7hPa NW 0.3mph /  0.5km/h 7mph /  11.3km/h 95.2% 0.03in /  0.76mm 0 W/m2
03:29 37.4 °F /  3 °C 36.1 °F /  2.3 °C 29.79in /  1008.7hPa NW 0.9mph /  1.4km/h 7mph /  11.3km/h 95% 0.04in /  1.02mm 0 W/m2
03:34 37.4 °F /  3 °C 36.1 °F /  2.3 °C 29.79in /  1008.7hPa NW 1mph /  1.6km/h 7mph /  11.3km/h 95% 0.04in /  1.02mm 0 W/m2
03:39 37.4 °F /  3 °C 36.1 °F /  2.3 °C 29.80in /  1009hPa NNW 1.9mph /  3.1km/h 9mph /  14.5km/h 95% 0.01in /  0.25mm 0 W/m2
03:44 37.4 °F /  3 °C 36.1 °F /  2.3 °C 29.80in /  1009hPa NW 2.3mph /  3.7km/h 9mph /  14.5km/h 95% 0.01in /  0.25mm 0 W/m2
03:49 37.4 °F /  3 °C 36.1 °F /  2.3 °C 29.80in /  1009hPa NW 1.8mph /  2.9km/h 9mph /  14.5km/h 95% 0.01in /  0.25mm 0 W/m2
03:54 37.4 °F /  3 °C 36.1 °F /  2.3 °C 29.80in /  1009hPa NW 2mph /  3.2km/h 9mph /  14.5km/h 95% 0.01in /  0.25mm 0 W/m2
03:59 37.4 °F /  3 °C 36.1 °F /  2.3 °C 29.80in /  1009hPa North 1.1mph /  1.8km/h 9mph /  14.5km/h 95% 0.01in /  0.25mm 0 W/m2
04:04 37.4 °F /  3 °C 36.1 °F /  2.3 °C 29.79in /  1008.7hPa Calm     95% 0.00in /  0mm 0 W/m2
04:09 37.4 °F /  3 °C 36.1 °F /  2.3 °C 29.80in /  1009hPa North 2.2mph /  3.5km/h 7mph /  11.3km/h 95% 0.01in /  0.25mm 0 W/m2
04:14 37.4 °F /  3 °C 36.1 °F /  2.3 °C 29.80in /  1009hPa NNW 1.5mph /  2.4km/h 7mph /  11.3km/h 95% 0.01in /  0.25mm 0 W/m2
04:19 37.4 °F /  3 °C 36.1 °F /  2.3 °C 29.80in /  1009hPa NNW 1.2mph /  1.9km/h 7mph /  11.3km/h 95% 0.01in /  0.25mm 0 W/m2
04:24 37.4 °F /  3 °C 36.1 °F /  2.3 °C 29.80in /  1009hPa NNW 1.9mph /  3.1km/h 7mph /  11.3km/h 95% 0.01in /  0.25mm 0 W/m2
04:29 37.4 °F /  3 °C 36.1 °F /  2.3 °C 29.80in /  1009hPa NNW 1.6mph /  2.6km/h 7mph /  11.3km/h 95% 0.01in /  0.25mm 0 W/m2
04:34 37.5 °F /  3.1 °C 36.2 °F /  2.3 °C 29.80in /  1009hPa NNW 0.2mph /  0.3km/h 7mph /  11.3km/h 95% 0.01in /  0.25mm 0 W/m2
04:39 37.5 °F /  3.1 °C 36.2 °F /  2.3 °C 29.80in /  1009hPa NNW 1.8mph /  2.9km/h 5mph /  8km/h 95% 0.00in /  0mm 0 W/m2
04:44 37.5 °F /  3.1 °C 36.2 °F /  2.3 °C 29.79in /  1008.7hPa NNW 0.3mph /  0.5km/h 5mph /  8km/h 95% 0.00in /  0mm 0 W/m2
04:49 37.5 °F /  3.1 °C 36.2 °F /  2.3 °C 29.80in /  1009hPa NNW 0.2mph /  0.3km/h 5mph /  8km/h 95% 0.00in /  0mm 0 W/m2
04:54 37.6 °F /  3.1 °C 36.3 °F /  2.4 °C 29.81in /  1009.4hPa NNW 1.1mph /  1.8km/h 5mph /  8km/h 95% 0.00in /  0mm 0 W/m2
04:59 37.6 °F /  3.1 °C 36.3 °F /  2.4 °C 29.81in /  1009.4hPa NNW 0.6mph /  1km/h 5mph /  8km/h 95% 0.00in /  0mm 0 W/m2
05:04 37.6 °F /  3.1 °C 36.3 °F /  2.4 °C 29.81in /  1009.4hPa NNW 0.1mph /  0.2km/h 5mph /  8km/h 95% 0.00in /  0mm 0 W/m2
05:09 37.7 °F /  3.2 °C 36.6 °F /  2.6 °C 29.82in /  1009.7hPa Calm   2mph /  3.2km/h 95.7% 0.00in /  0mm 0 W/m2
05:14 37.7 °F /  3.2 °C 36.7 °F /  2.6 °C 29.82in /  1009.7hPa Calm   2mph /  3.2km/h 96% 0.00in /  0mm 0 W/m2
05:19 37.7 °F /  3.2 °C 36.7 °F /  2.6 °C 29.83in /  1010hPa Calm   2mph /  3.2km/h 96% 0.00in /  0mm 0 W/m2
05:24 37.8 °F /  3.2 °C 36.8 °F /  2.7 °C 29.83in /  1010hPa Calm   2mph /  3.2km/h 96% 0.00in /  0mm 0 W/m2
05:29 37.8 °F /  3.2 °C 36.8 °F /  2.7 °C 29.83in /  1010hPa Calm   2mph /  3.2km/h 96% 0.00in /  0mm 0 W/m2
05:34 37.9 °F /  3.3 °C 36.8 °F /  2.7 °C 29.83in /  1010hPa NNW 0.1mph /  0.2km/h 2mph /  3.2km/h 96% 0.00in /  0mm 0 W/m2
05:39 37.9 °F /  3.3 °C 36.9 °F /  2.7 °C 29.84in /  1010.4hPa NNW 1.4mph /  2.3km/h 5mph /  8km/h 96% 0.00in /  0mm 0 W/m2
05:44 38 °F /  3.3 °C 36.9 °F /  2.7 °C 29.84in /  1010.4hPa NNW 0.8mph /  1.3km/h 5mph /  8km/h 96% 0.00in /  0mm 0 W/m2
05:49 38 °F /  3.3 °C 36.9 °F /  2.7 °C 29.85in /  1010.7hPa NW 1.8mph /  2.9km/h 10mph /  16.1km/h 95.5% 0.00in /  0mm 0 W/m2
05:54 38.1 °F /  3.4 °C 36.8 °F /  2.7 °C 29.85in /  1010.7hPa NW 1.5mph /  2.4km/h 12mph /  19.3km/h 95% 0.00in /  0mm 0 W/m2
05:59 38 °F /  3.3 °C 36.7 °F /  2.6 °C 29.85in /  1010.7hPa NW 4.3mph /  6.9km/h 12mph /  19.3km/h 95% 0.00in /  0mm 0 W/m2
06:04 38 °F /  3.3 °C 36.7 °F /  2.6 °C 29.85in /  1010.7hPa WNW 2.9mph /  4.7km/h 14mph /  22.5km/h 95% 0.00in /  0mm 0 W/m2
06:09 37.9 °F /  3.3 °C 36.6 °F /  2.6 °C 29.85in /  1010.7hPa WNW 1.8mph /  2.9km/h 14mph /  22.5km/h 95% 0.00in /  0mm 0 W/m2
06:14 37.9 °F /  3.3 °C 36.6 °F /  2.6 °C 29.86in /  1011.1hPa NW 1mph /  1.6km/h 14mph /  22.5km/h 95% 0.00in /  0mm 0 W/m2
06:19 37.9 °F /  3.3 °C 36.6 °F /  2.6 °C 29.87in /  1011.4hPa NNW 0.8mph /  1.3km/h 14mph /  22.5km/h 95% 0.00in /  0mm 0 W/m2
06:24 37.9 °F /  3.3 °C 36.6 °F /  2.6 °C 29.88in /  1011.7hPa NW 0.9mph /  1.4km/h 14mph /  22.5km/h 95% 0.00in /  0mm 0 W/m2
06:29 37.9 °F /  3.3 °C 36.6 °F /  2.6 °C 29.88in /  1011.7hPa NNW 1mph /  1.6km/h 14mph /  22.5km/h 95% 0.00in /  0mm 0 W/m2
06:34 37.9 °F /  3.3 °C 36.6 °F /  2.6 °C 29.88in /  1011.7hPa NNW 0.7mph /  1.1km/h 14mph /  22.5km/h 95% 0.00in /  0mm 0 W/m2
06:39 37.9 °F /  3.3 °C 36.6 °F /  2.6 °C 29.88in /  1011.7hPa NNW 0.3mph /  0.5km/h 5mph /  8km/h 95% 0.00in /  0mm 0 W/m2
06:44 37.9 °F /  3.3 °C 36.6 °F /  2.6 °C 29.89in /  1012.1hPa NW 1.7mph /  2.7km/h 7mph /  11.3km/h 95% 0.00in /  0mm 0 W/m2
06:49 37.9 °F /  3.3 °C 36.5 °F /  2.5 °C 29.89in /  1012.1hPa NW 3.2mph /  5.1km/h 10mph /  16.1km/h 94.8% 0.00in /  0mm 0 W/m2
06:54 37.8 °F /  3.2 °C 36.2 °F /  2.3 °C 29.89in /  1012.1hPa NNW 3.3mph /  5.3km/h 10mph /  16.1km/h 94% 0.00in /  0mm 0 W/m2
06:59 37.7 °F /  3.2 °C 36.1 °F /  2.3 °C 29.89in /  1012.1hPa NW 2.9mph /  4.7km/h 10mph /  16.1km/h 94% 0.00in /  0mm 0 W/m2
07:04 37.6 °F /  3.1 °C 35.9 °F /  2.2 °C 29.90in /  1012.4hPa NW 4.6mph /  7.4km/h 15mph /  24.1km/h 93.5% 0.00in /  0mm 0 W/m2
07:09 37.6 °F /  3.1 °C 35.8 °F /  2.1 °C 29.90in /  1012.4hPa NW 4.3mph /  6.9km/h 15mph /  24.1km/h 93% 0.00in /  0mm 0 W/m2
07:14 37.5 °F /  3.1 °C 35.6 °F /  2 °C 29.90in /  1012.4hPa NW 7.3mph /  11.7km/h 17mph /  27.4km/h 92.6% 0.00in /  0mm 0 W/m2
07:19 37.5 °F /  3.1 °C 35.4 °F /  1.9 °C 29.89in /  1012.1hPa NW 6.6mph /  10.6km/h 20mph /  32.2km/h 92% 0.00in /  0mm 0 W/m2
07:24 37.4 °F /  3 °C 35.1 °F /  1.7 °C 29.90in /  1012.4hPa NW 9.6mph /  15.4km/h 23mph /  37km/h 91% 0.00in /  0mm 0 W/m2
07:29 37.4 °F /  3 °C 34.6 °F /  1.4 °C 29.90in /  1012.4hPa NW 6.4mph /  10.3km/h 23mph /  37km/h 89.7% 0.00in /  0mm 5 W/m2
07:34 37.3 °F /  2.9 °C 34.4 °F /  1.3 °C 29.91in /  1012.8hPa NW 6.6mph /  10.6km/h 23mph /  37km/h 89% 0.00in /  0mm 7 W/m2
07:39 37.3 °F /  2.9 °C 34.2 °F /  1.2 °C 29.91in /  1012.8hPa NW 6.6mph /  10.6km/h 17mph /  27.4km/h 88.4% 0.00in /  0mm 5 W/m2
07:44 37.3 °F /  2.9 °C 34 °F /  1.1 °C 29.91in /  1012.8hPa NW 6.1mph /  9.8km/h 17mph /  27.4km/h 87.6% 0.00in /  0mm 9 W/m2
07:49 37.4 °F /  3 °C 33.9 °F /  1.1 °C 29.91in /  1012.8hPa NW 5.4mph /  8.7km/h 17mph /  27.4km/h 87% 0.00in /  0mm 9 W/m2
07:54 37.4 °F /  3 °C 34.3 °F /  1.3 °C 29.92in /  1013.1hPa NNW 5.2mph /  8.4km/h 17mph /  27.4km/h 88.5% 0.00in /  0mm 7 W/m2
07:59 37.4 °F /  3 °C 34.6 °F /  1.4 °C 29.92in /  1013.1hPa NW 2.6mph /  4.2km/h 17mph /  27.4km/h 89.6% 0.00in /  0mm 7 W/m2
08:00 37.4 °F /  3 °C 35.3 °F /  1.8 °C 29.92in /  1013.1hPa NW 5mph /  8km/h 17mph /  27.4km/h 92% 0.00in /  0mm 7 W/m2
08:09 37.4 °F /  3 °C 34.5 °F /  1.4 °C 29.93in /  1013.4hPa NW 9mph /  14.5km/h 21mph /  33.8km/h 89.1% 0.00in /  0mm 32 W/m2
08:14 37.3 °F /  2.9 °C 33.4 °F /  0.8 °C 29.94in /  1013.8hPa NW 9.1mph /  14.6km/h 21mph /  33.8km/h 85.6% 0.00in /  0mm 37 W/m2
08:19 37.3 °F /  2.9 °C 33.1 °F /  0.6 °C 29.93in /  1013.4hPa WNW 12.1mph /  19.5km/h 21mph /  33.8km/h 84.6% 0.00in /  0mm 46 W/m2
08:24 37.3 °F /  2.9 °C 32.9 °F /  0.5 °C 29.92in /  1013.1hPa NW 9.7mph /  15.6km/h 21mph /  33.8km/h 84% 0.00in /  0mm 53 W/m2
08:29 37.3 °F /  2.9 °C 32.9 °F /  0.5 °C 29.93in /  1013.4hPa NW 11.3mph /  18.2km/h 24mph /  38.6km/h 84% 0.00in /  0mm 60 W/m2
08:34 37.3 °F /  2.9 °C 32.9 °F /  0.5 °C 29.94in /  1013.8hPa NW 12mph /  19.3km/h 24mph /  38.6km/h 84% 0.00in /  0mm 65 W/m2
08:39 37.2 °F /  2.9 °C 32.7 °F /  0.4 °C 29.94in /  1013.8hPa WNW 12.2mph /  19.6km/h 21mph /  33.8km/h 83.9% 0.00in /  0mm 63 W/m2
08:44 37 °F /  2.8 °C 32.3 °F /  0.2 °C 29.94in /  1013.8hPa NW 10.1mph /  16.3km/h 21mph /  33.8km/h 83% 0.00in /  0mm 91 W/m2
08:49 36.8 °F /  2.7 °C 32.2 °F /  0.1 °C 29.94in /  1013.8hPa WNW 9.1mph /  14.6km/h 22mph /  35.4km/h 83% 0.00in /  0mm 84 W/m2
08:54 36.8 °F /  2.7 °C 32.1 °F /  0.1 °C 29.94in /  1013.8hPa NW 9.6mph /  15.4km/h 22mph /  35.4km/h 83% 0.00in /  0mm 76 W/m2
08:59 36.6 °F /  2.6 °C 32 °F /  0 °C 29.95in /  1014.1hPa NW 10.3mph /  16.6km/h 22mph /  35.4km/h 83% 0.00in /  0mm 76 W/m2
09:04 36.6 °F /  2.6 °C 31.6 °F /  -0.2 °C 29.95in /  1014.1hPa NW 11mph /  17.7km/h 23mph /  37km/h 82.2% 0.00in /  0mm 91 W/m2
09:09 36.5 °F /  2.5 °C 31.4 °F /  -0.3 °C 29.94in /  1013.8hPa NW 10mph /  16.1km/h 25mph /  40.2km/h 81.4% 0.00in /  0mm 95 W/m2
09:14 36.5 °F /  2.5 °C 31.2 °F /  -0.4 °C 29.95in /  1014.1hPa NW 8.9mph /  14.3km/h 25mph /  40.2km/h 81% 0.00in /  0mm 100 W/m2
09:19 36.5 °F /  2.5 °C 31.2 °F /  -0.4 °C 29.96in /  1014.4hPa NW 5.9mph /  9.5km/h 25mph /  40.2km/h 81% 0.00in /  0mm 120 W/m2
09:24 36.6 °F /  2.6 °C 31.3 °F /  -0.4 °C 29.96in /  1014.4hPa NW 8.7mph /  14km/h 25mph /  40.2km/h 81% 0.00in /  0mm 120 W/m2
09:29 36.6 °F /  2.6 °C 31.3 °F /  -0.4 °C 29.97in /  1014.8hPa NW 4.9mph /  7.9km/h 25mph /  40.2km/h 80.8% 0.00in /  0mm 72 W/m2
09:34 36.6 °F /  2.6 °C 31.1 °F /  -0.5 °C 29.97in /  1014.8hPa NW 8mph /  12.9km/h 25mph /  40.2km/h 80.1% 0.00in /  0mm 74 W/m2
09:39 36.5 °F /  2.5 °C 30.9 °F /  -0.6 °C 29.97in /  1014.8hPa NW 8.7mph /  14km/h 17mph /  27.4km/h 80% 0.00in /  0mm 62 W/m2
09:44 36.4 °F /  2.4 °C 30.8 °F /  -0.7 °C 29.97in /  1014.8hPa NW 8.5mph /  13.7km/h 18mph /  29km/h 80% 0.00in /  0mm 107 W/m2
09:49 36.3 °F /  2.4 °C 30.6 °F /  -0.8 °C 29.98in /  1015.1hPa NW 4.2mph /  6.8km/h 18mph /  29km/h 79.8% 0.00in /  0mm 72 W/m2
09:54 36.3 °F /  2.4 °C 30.7 °F /  -0.7 °C 29.99in /  1015.5hPa NW 6.1mph /  9.8km/h 18mph /  29km/h 80% 0.00in /  0mm 134 W/m2
09:59 36.4 °F /  2.4 °C 30.9 °F /  -0.6 °C 29.99in /  1015.5hPa NW 8.4mph /  13.5km/h 18mph /  29km/h 80% 0.00in /  0mm 155 W/m2
10:04 36.6 °F /  2.6 °C 31 °F /  -0.6 °C 29.99in /  1015.5hPa NW 5.8mph /  9.3km/h 18mph /  29km/h 80% 0.00in /  0mm 135 W/m2
10:09 36.7 °F /  2.6 °C 30.9 °F /  -0.6 °C 29.99in /  1015.5hPa NW 3.9mph /  6.3km/h 17mph /  27.4km/h 79.1% 0.00in /  0mm 162 W/m2
10:14 36.9 °F /  2.7 °C 31.2 °F /  -0.4 °C 29.99in /  1015.5hPa NW 7.4mph /  11.9km/h 17mph /  27.4km/h 79.7% 0.00in /  0mm 257 W/m2
10:19 37.3 °F /  2.9 °C 31.6 °F /  -0.2 °C 29.99in /  1015.5hPa NW 9.7mph /  15.6km/h 20mph /  32.2km/h 79.5% 0.00in /  0mm 473 W/m2
10:24 37.9 °F /  3.3 °C 31.8 °F /  -0.1 °C 29.99in /  1015.5hPa NNW 8.6mph /  13.8km/h 20mph /  32.2km/h 78.6% 0.00in /  0mm 424 W/m2
10:29 38.2 °F /  3.4 °C 31.9 °F /  -0.1 °C 29.99in /  1015.5hPa NW 8.7mph /  14km/h 20mph /  32.2km/h 77.7% 0.00in /  0mm 265 W/m2
10:34 38.1 °F /  3.4 °C 31.6 °F /  -0.2 °C 30.00in /  1015.8hPa NW 8.3mph /  13.4km/h 20mph /  32.2km/h 77% 0.00in /  0mm 218 W/m2
10:39 38 °F /  3.3 °C 31.5 °F /  -0.3 °C 30.00in /  1015.8hPa NW 5.6mph /  9km/h 20mph /  32.2km/h 77% 0.00in /  0mm 246 W/m2
10:44 38 °F /  3.3 °C 31.4 °F /  -0.3 °C 29.99in /  1015.5hPa NW 4.5mph /  7.2km/h 20mph /  32.2km/h 77% 0.00in /  0mm 246 W/m2
10:49 38 °F /  3.3 °C 31.6 °F /  -0.2 °C 29.99in /  1015.5hPa NW 5.2mph /  8.4km/h 20mph /  32.2km/h 77.4% 0.00in /  0mm 229 W/m2
10:54 38 °F /  3.3 °C 31.5 °F /  -0.3 °C 30.00in /  1015.8hPa NW 3.7mph /  6km/h 20mph /  32.2km/h 77.2% 0.00in /  0mm 190 W/m2
10:59 37.9 °F /  3.3 °C 31.2 °F /  -0.4 °C 30.00in /  1015.8hPa NW 7.8mph /  12.6km/h 20mph /  32.2km/h 76.4% 0.00in /  0mm 190 W/m2
11:04 37.6 °F /  3.1 °C 30.6 °F /  -0.8 °C 30.00in /  1015.8hPa NW 7mph /  11.3km/h 23mph /  37km/h 75.8% 0.00in /  0mm 139 W/m2
11:09 37.1 °F /  2.8 °C 30.2 °F /  -1 °C 30.00in /  1015.8hPa NW 10.5mph /  16.9km/h 23mph /  37km/h 75.6% 0.00in /  0mm 104 W/m2
11:14 36.7 °F /  2.6 °C 30 °F /  -1.1 °C 30.00in /  1015.8hPa NW 4.4mph /  7.1km/h 23mph /  37km/h 76.3% 0.00in /  0mm 63 W/m2
11:19 36.5 °F /  2.5 °C 30 °F /  -1.1 °C 30.01in /  1016.1hPa NW 5mph /  8km/h 23mph /  37km/h 77% 0.00in /  0mm 54 W/m2
11:24 36.2 °F /  2.3 °C 29.7 °F /  -1.3 °C 30.01in /  1016.1hPa NW 8.6mph /  13.8km/h 23mph /  37km/h 77% 0.00in /  0mm 65 W/m2
11:29 35.9 °F /  2.2 °C 29.4 °F /  -1.4 °C 30.01in /  1016.1hPa NW 8.4mph /  13.5km/h 23mph /  37km/h 77% 0.00in /  0mm 253 W/m2
11:34 35.8 °F /  2.1 °C 29.4 °F /  -1.4 °C 30.02in /  1016.5hPa NW 5.8mph /  9.3km/h 23mph /  37km/h 77.2% 0.00in /  0mm 253 W/m2
11:39 35.9 °F /  2.2 °C 29.8 °F /  -1.2 °C 30.02in /  1016.5hPa NW 7.4mph /  11.9km/h 15mph /  24.1km/h 78% 0.00in /  0mm 141 W/m2
11:44 35.9 °F /  2.2 °C 29.5 °F /  -1.4 °C 30.02in /  1016.5hPa NW 6.4mph /  10.3km/h 16mph /  25.7km/h 77.1% 0.00in /  0mm 114 W/m2
11:49 35.9 °F /  2.2 °C 29.2 °F /  -1.6 °C 30.02in /  1016.5hPa NNW 7.9mph /  12.7km/h 16mph /  25.7km/h 76.5% 0.00in /  0mm 151 W/m2
11:54 35.9 °F /  2.2 °C 28.8 °F /  -1.8 °C 30.02in /  1016.5hPa NW 10.3mph /  16.6km/h 20mph /  32.2km/h 75.3% 0.00in /  0mm 167 W/m2
11:59 35.8 °F /  2.1 °C 28.7 °F /  -1.8 °C 30.02in /  1016.5hPa NNW 8.1mph /  13km/h 20mph /  32.2km/h 75% 0.00in /  0mm 192 W/m2
12:09 36 °F /  2.2 °C 28.6 °F /  -1.9 °C 30.02in /  1016.5hPa NW 6.8mph /  10.9km/h 15mph /  24.1km/h 74.3% 0.00in /  0mm 313 W/m2
12:14 36.1 °F /  2.3 °C 28.7 °F /  -1.8 °C 30.02in /  1016.5hPa NW 7.4mph /  11.9km/h 16mph /  25.7km/h 74.1% 0.00in /  0mm 179 W/m2
12:19 36.1 °F /  2.3 °C 28.6 °F /  -1.9 °C 30.03in /  1016.8hPa NW 5.5mph /  8.9km/h 16mph /  25.7km/h 74.1% 0.00in /  0mm 149 W/m2
12:24 36 °F /  2.2 °C 28.7 °F /  -1.8 °C 30.03in /  1016.8hPa NW 6.8mph /  10.9km/h 16mph /  25.7km/h 74.6% 0.00in /  0mm 172 W/m2
12:29 35.9 °F /  2.2 °C 28.5 °F /  -1.9 °C 30.03in /  1016.8hPa NW 3.7mph /  6km/h 16mph /  25.7km/h 74.2% 0.00in /  0mm 185 W/m2
12:34 36.1 °F /  2.3 °C 28.8 °F /  -1.8 °C 30.03in /  1016.8hPa NNW 5.5mph /  8.9km/h 17mph /  27.4km/h 74.5% 0.00in /  0mm 176 W/m2
12:39 36.1 °F /  2.3 °C 28.6 °F /  -1.9 °C 30.03in /  1016.8hPa NW 5.7mph /  9.2km/h 17mph /  27.4km/h 74% 0.00in /  0mm 162 W/m2
12:44 36 °F /  2.2 °C 28.3 °F /  -2.1 °C 30.03in /  1016.8hPa WNW 7.9mph /  12.7km/h 17mph /  27.4km/h 73.2% 0.00in /  0mm 125 W/m2
12:49 35.8 °F /  2.1 °C 28.2 °F /  -2.1 °C 30.03in /  1016.8hPa NW 6.4mph /  10.3km/h 17mph /  27.4km/h 73.6% 0.00in /  0mm 178 W/m2
12:54 35.7 °F /  2.1 °C 28.1 °F /  -2.2 °C 30.03in /  1016.8hPa WNW 6.4mph /  10.3km/h 17mph /  27.4km/h 73.7% 0.00in /  0mm 267 W/m2
12:59 35.9 °F /  2.2 °C 28.4 °F /  -2 °C 30.02in /  1016.5hPa NW 3.8mph /  6.1km/h 17mph /  27.4km/h 74% 0.00in /  0mm 204 W/m2
13:04 36.1 °F /  2.3 °C 28.5 °F /  -1.9 °C 30.02in /  1016.5hPa NW 4.9mph /  7.9km/h 17mph /  27.4km/h 73.9% 0.00in /  0mm 183 W/m2
13:09 36.1 °F /  2.3 °C 28.2 °F /  -2.1 °C 30.03in /  1016.8hPa NW 7.8mph /  12.6km/h 20mph /  32.2km/h 72.5% 0.00in /  0mm 183 W/m2
13:13 36.1 °F /  2.3 °C 27.8 °F /  -2.3 °C 30.03in /  1016.8hPa NW 8.2mph /  13.2km/h 20mph /  32.2km/h 71.7% 0.00in /  0mm 155 W/m2
13:19 35.8 °F /  2.1 °C 27.3 °F /  -2.6 °C 30.03in /  1016.8hPa NNW 8.2mph /  13.2km/h 20mph /  32.2km/h 71% 0.00in /  0mm 132 W/m2
13:24 35.5 °F /  1.9 °C 26.9 °F /  -2.8 °C 30.03in /  1016.8hPa NW 6.4mph /  10.3km/h 20mph /  32.2km/h 70.6% 0.00in /  0mm 142 W/m2
13:29 35.3 °F /  1.8 °C 26.5 °F /  -3.1 °C 30.04in /  1017.2hPa NNW 7.2mph /  11.6km/h 20mph /  32.2km/h 70% 0.00in /  0mm 144 W/m2
13:34 35.3 °F /  1.8 °C 26.8 °F /  -2.9 °C 30.04in /  1017.2hPa NW 3.7mph /  6km/h 20mph /  32.2km/h 70.9% 0.00in /  0mm 165 W/m2
13:39 35.6 °F /  2 °C 27.3 °F /  -2.6 °C 30.04in /  1017.2hPa WNW 7.7mph /  12.4km/h 15mph /  24.1km/h 71.7% 0.00in /  0mm 243 W/m2
13:44 35.8 °F /  2.1 °C 27.1 °F /  -2.7 °C 30.04in /  1017.2hPa NW 3.2mph /  5.1km/h 15mph /  24.1km/h 70.3% 0.00in /  0mm 165 W/m2
13:49 36 °F /  2.2 °C 27.1 °F /  -2.7 °C 30.05in /  1017.5hPa WNW 5.8mph /  9.3km/h 16mph /  25.7km/h 69.7% 0.00in /  0mm 158 W/m2
13:54 35.9 °F /  2.2 °C 26.7 °F /  -2.9 °C 30.04in /  1017.2hPa NW 6.1mph /  9.8km/h 18mph /  29km/h 69% 0.00in /  0mm 206 W/m2
13:59 35.8 °F /  2.1 °C 26.6 °F /  -3 °C 30.05in /  1017.5hPa WNW 4.7mph /  7.6km/h 18mph /  29km/h 68.8% 0.00in /  0mm 97 W/m2
14:04 35.6 °F /  2 °C 26.6 °F /  -3 °C 30.05in /  1017.5hPa NW 2.5mph /  4km/h 18mph /  29km/h 69.4% 0.00in /  0mm 174 W/m2
14:09 35.7 °F /  2.1 °C 26.8 °F /  -2.9 °C 30.06in /  1017.8hPa NW 6mph /  9.7km/h 15mph /  24.1km/h 70% 0.00in /  0mm 216 W/m2
14:14 35.9 °F /  2.2 °C 26.6 °F /  -3 °C 30.06in /  1017.8hPa NW 6.3mph /  10.1km/h 17mph /  27.4km/h 68.7% 0.00in /  0mm 197 W/m2
14:19 35.9 °F /  2.2 °C 26.4 °F /  -3.1 °C 30.06in /  1017.8hPa NW 8.1mph /  13km/h 22mph /  35.4km/h 68.2% 0.00in /  0mm 181 W/m2
14:24 35.7 °F /  2.1 °C 26.4 °F /  -3.1 °C 30.05in /  1017.5hPa NW 4.4mph /  7.1km/h 22mph /  35.4km/h 68.7% 0.00in /  0mm 165 W/m2
14:29 35.6 °F /  2 °C 26.5 °F /  -3.1 °C 30.05in /  1017.5hPa NW 6.4mph /  10.3km/h 22mph /  35.4km/h 69% 0.00in /  0mm 160 W/m2
14:34 35.5 °F /  1.9 °C 26.3 °F /  -3.2 °C 30.05in /  1017.5hPa NW 5.4mph /  8.7km/h 22mph /  35.4km/h 69% 0.00in /  0mm 88 W/m2
14:39 35.2 °F /  1.8 °C 26.2 °F /  -3.2 °C 30.05in /  1017.5hPa NW 4.2mph /  6.8km/h 14mph /  22.5km/h 69.2% 0.00in /  0mm 70 W/m2
14:44 35.1 °F /  1.7 °C 26.1 °F /  -3.3 °C 30.05in /  1017.5hPa NW 2.4mph /  3.9km/h 14mph /  22.5km/h 69.3% 0.00in /  0mm 60 W/m2
14:49 35.2 °F /  1.8 °C 26.1 °F /  -3.3 °C 30.06in /  1017.8hPa NNW 2.8mph /  4.5km/h 14mph /  22.5km/h 69% 0.00in /  0mm 49 W/m2
14:54 35.2 °F /  1.8 °C 26.1 °F /  -3.3 °C 30.07in /  1018.2hPa NW 5.7mph /  9.2km/h 16mph /  25.7km/h 69% 0.00in /  0mm 49 W/m2
14:59 35 °F /  1.7 °C 25.6 °F /  -3.6 °C 30.07in /  1018.2hPa NW 6.5mph /  10.5km/h 16mph /  25.7km/h 68.3% 0.00in /  0mm 42 W/m2
15:04 34.5 °F /  1.4 °C 25.4 °F /  -3.7 °C 30.07in /  1018.2hPa NW 4mph /  6.4km/h 16mph /  25.7km/h 69% 0.00in /  0mm 42 W/m2
15:09 34.3 °F /  1.3 °C 25.5 °F /  -3.6 °C 30.07in /  1018.2hPa NW 3.7mph /  6km/h 16mph /  25.7km/h 69.8% 0.00in /  0mm 40 W/m2
15:14 34.1 °F /  1.2 °C 25.2 °F /  -3.8 °C 30.08in /  1018.5hPa NNW 6.2mph /  10km/h 17mph /  27.4km/h 69.4% 0.00in /  0mm 35 W/m2
15:19 33.8 °F /  1 °C 24.7 °F /  -4.1 °C 30.08in /  1018.5hPa NNW 6.6mph /  10.6km/h 20mph /  32.2km/h 69% 0.00in /  0mm 28 W/m2
15:24 33.6 °F /  0.9 °C 24.7 °F /  -4.1 °C 30.08in /  1018.5hPa NW 4.4mph /  7.1km/h 20mph /  32.2km/h 69.6% 0.00in /  0mm 30 W/m2
15:29 33.5 °F /  0.8 °C 24.9 °F /  -3.9 °C 30.09in /  1018.8hPa NW 4.6mph /  7.4km/h 20mph /  32.2km/h 70.4% 0.00in /  0mm 26 W/m2
15:34 33.3 °F /  0.7 °C 24.9 °F /  -3.9 °C 30.09in /  1018.8hPa NW 5.2mph /  8.4km/h 20mph /  32.2km/h 71% 0.00in /  0mm 26 W/m2
15:39 33.1 °F /  0.6 °C 24.7 °F /  -4.1 °C 30.09in /  1018.8hPa NNW 6.4mph /  10.3km/h 16mph /  25.7km/h 71% 0.00in /  0mm 25 W/m2
15:44 33 °F /  0.6 °C 24.6 °F /  -4.1 °C 30.10in /  1019.2hPa NW 6.8mph /  10.9km/h 16mph /  25.7km/h 71% 0.00in /  0mm 23 W/m2
15:49 32.9 °F /  0.5 °C 24.5 °F /  -4.2 °C 30.10in /  1019.2hPa NNW 3.6mph /  5.8km/h 16mph /  25.7km/h 71% 0.00in /  0mm 25 W/m2
15:54 32.8 °F /  0.4 °C 24.8 °F /  -4 °C 30.10in /  1019.2hPa NNW 3.1mph /  5km/h 16mph /  25.7km/h 72% 0.00in /  0mm 26 W/m2
15:59 32.8 °F /  0.4 °C 24.8 °F /  -4 °C 30.11in /  1019.5hPa NW 2.5mph /  4km/h 16mph /  25.7km/h 72% 0.00in /  0mm 21 W/m2
16:00 32.7 °F /  0.4 °C 24.7 °F /  -4.1 °C 30.11in /  1019.5hPa Calm   16mph /  25.7km/h 72% 0.00in /  0mm 21 W/m2
16:09 32.7 °F /  0.4 °C 24.9 °F /  -3.9 °C 30.10in /  1019.2hPa NNW 4.5mph /  7.2km/h 17mph /  27.4km/h 72.8% 0.00in /  0mm 11 W/m2
16:14 32.6 °F /  0.3 °C 24.7 °F /  -4.1 °C 30.11in /  1019.5hPa NW 2.2mph /  3.5km/h 17mph /  27.4km/h 72.5% 0.00in /  0mm 7 W/m2
16:19 32.5 °F /  0.3 °C 24.8 °F /  -4 °C 30.11in /  1019.5hPa NNW 3.4mph /  5.5km/h 17mph /  27.4km/h 73% 0.00in /  0mm 5 W/m2
16:24 32.3 °F /  0.2 °C 24.7 °F /  -4.1 °C 30.11in /  1019.5hPa NW 4.2mph /  6.8km/h 17mph /  27.4km/h 73% 0.00in /  0mm 0 W/m2
16:29 32.2 °F /  0.1 °C 24.8 °F /  -4 °C 30.12in /  1019.9hPa NNW 5.1mph /  8.2km/h 17mph /  27.4km/h 73.9% 0.00in /  0mm 0 W/m2
16:34 32.1 °F /  0.1 °C 24.8 °F /  -4 °C 30.12in /  1019.9hPa NW 5.5mph /  8.9km/h 17mph /  27.4km/h 74% 0.00in /  0mm 0 W/m2
16:39 32 °F /  0 °C 24.7 °F /  -4.1 °C 30.12in /  1019.9hPa NNW 4.1mph /  6.6km/h 14mph /  22.5km/h 74% 0.00in /  0mm 0 W/m2
16:44 32 °F /  0 °C 24.6 °F /  -4.1 °C 30.12in /  1019.9hPa NNW 3.4mph /  5.5km/h 14mph /  22.5km/h 74% 0.00in /  0mm 0 W/m2
16:49 31.9 °F /  -0.1 °C 24.6 °F /  -4.1 °C 30.13in /  1020.2hPa NNW 2.8mph /  4.5km/h 14mph /  22.5km/h 74% 0.00in /  0mm 0 W/m2
16:54 31.8 °F /  -0.1 °C 24.4 °F /  -4.2 °C 30.13in /  1020.2hPa NW 3mph /  4.8km/h 14mph /  22.5km/h 74% 0.00in /  0mm 0 W/m2
16:59 31.7 °F /  -0.2 °C 24.6 °F /  -4.1 °C 30.13in /  1020.2hPa NW 1.7mph /  2.7km/h 14mph /  22.5km/h 74.9% 0.00in /  0mm 0 W/m2
17:04 31.6 °F /  -0.2 °C 24.4 °F /  -4.2 °C 30.13in /  1020.2hPa NNW 3.5mph /  5.6km/h 14mph /  22.5km/h 74.6% 0.00in /  0mm 0 W/m2
17:09 31.5 °F /  -0.3 °C 24.2 °F /  -4.3 °C 30.13in /  1020.2hPa NNW 3.7mph /  6km/h 12mph /  19.3km/h 74.2% 0.00in /  0mm 0 W/m2
17:14 31.4 °F /  -0.3 °C 24.1 °F /  -4.4 °C 30.13in /  1020.2hPa NW 6.6mph /  10.6km/h 15mph /  24.1km/h 74% 0.00in /  0mm 0 W/m2
17:19 31.4 °F /  -0.3 °C 24.1 °F /  -4.4 °C 30.13in /  1020.2hPa NW 3.7mph /  6km/h 15mph /  24.1km/h 74% 0.00in /  0mm 0 W/m2
17:24 31.3 °F /  -0.4 °C 24 °F /  -4.4 °C 30.13in /  1020.2hPa NNW 4.3mph /  6.9km/h 15mph /  24.1km/h 74% 0.00in /  0mm 0 W/m2
17:29 31.3 °F /  -0.4 °C 23.9 °F /  -4.5 °C 30.14in /  1020.5hPa NNW 3.8mph /  6.1km/h 15mph /  24.1km/h 74% 0.00in /  0mm 0 W/m2
17:34 31.2 °F /  -0.4 °C 24 °F /  -4.4 °C 30.14in /  1020.5hPa NW 3.7mph /  6km/h 15mph /  24.1km/h 74.4% 0.00in /  0mm 0 W/m2
17:39 31.1 °F /  -0.5 °C 24.1 °F /  -4.4 °C 30.14in /  1020.5hPa NW 1.8mph /  2.9km/h 10mph /  16.1km/h 74.8% 0.00in /  0mm 0 W/m2
17:44 31.1 °F /  -0.5 °C 24.1 °F /  -4.4 °C 30.14in /  1020.5hPa NNW 1.7mph /  2.7km/h 10mph /  16.1km/h 75% 0.00in /  0mm 0 W/m2
17:49 31 °F /  -0.6 °C 24 °F /  -4.4 °C 30.14in /  1020.5hPa NW 3.4mph /  5.5km/h 10mph /  16.1km/h 75% 0.00in /  0mm 0 W/m2
17:54 30.9 °F /  -0.6 °C 24 °F /  -4.4 °C 30.14in /  1020.5hPa NNW 4.7mph /  7.6km/h 14mph /  22.5km/h 75.3% 0.00in /  0mm 0 W/m2
17:59 30.8 °F /  -0.7 °C 23.9 °F /  -4.5 °C 30.14in /  1020.5hPa NNW 4.8mph /  7.7km/h 14mph /  22.5km/h 75.1% 0.00in /  0mm 0 W/m2
18:04 30.8 °F /  -0.7 °C 23.8 °F /  -4.6 °C 30.14in /  1020.5hPa NNW 5.2mph /  8.4km/h 15mph /  24.1km/h 75% 0.00in /  0mm 0 W/m2
18:09 30.7 °F /  -0.7 °C 23.7 °F /  -4.6 °C 30.14in /  1020.5hPa NNW 4.3mph /  6.9km/h 15mph /  24.1km/h 74.8% 0.00in /  0mm 0 W/m2
18:14 30.7 °F /  -0.7 °C 23.4 °F /  -4.8 °C 30.14in /  1020.5hPa NNW 3.3mph /  5.3km/h 15mph /  24.1km/h 74.2% 0.00in /  0mm 0 W/m2
18:19 30.6 °F /  -0.8 °C 23.5 °F /  -4.7 °C 30.14in /  1020.5hPa NNW 3.7mph /  6km/h 15mph /  24.1km/h 74.6% 0.00in /  0mm 0 W/m2
18:24 30.5 °F /  -0.8 °C 23.6 °F /  -4.7 °C 30.14in /  1020.5hPa NNW 1.8mph /  2.9km/h 15mph /  24.1km/h 75% 0.00in /  0mm 0 W/m2
18:29 30.4 °F /  -0.9 °C 23.5 °F /  -4.7 °C 30.15in /  1020.9hPa NNW 1.6mph /  2.6km/h 15mph /  24.1km/h 75% 0.00in /  0mm 0 W/m2
18:34 30.3 °F /  -0.9 °C 23.5 °F /  -4.7 °C 30.15in /  1020.9hPa NNW 1.8mph /  2.9km/h 15mph /  24.1km/h 75.4% 0.00in /  0mm 0 W/m2
18:39 30.2 °F /  -1 °C 23.6 °F /  -4.7 °C 30.15in /  1020.9hPa NW 2.9mph /  4.7km/h 11mph /  17.7km/h 76% 0.00in /  0mm 0 W/m2
18:44 30.1 °F /  -1.1 °C 23.5 °F /  -4.7 °C 30.15in /  1020.9hPa NW 5.1mph /  8.2km/h 13mph /  20.9km/h 76% 0.00in /  0mm 0 W/m2
18:49 30 °F /  -1.1 °C 23.4 °F /  -4.8 °C 30.16in /  1021.2hPa NNW 5.9mph /  9.5km/h 13mph /  20.9km/h 76% 0.00in /  0mm 0 W/m2
18:54 29.9 °F /  -1.2 °C 23.3 °F /  -4.8 °C 30.16in /  1021.2hPa NNW 5.3mph /  8.5km/h 13mph /  20.9km/h 76% 0.00in /  0mm 0 W/m2
18:59 29.9 °F /  -1.2 °C 23.3 °F /  -4.8 °C 30.16in /  1021.2hPa NNW 3.4mph /  5.5km/h 13mph /  20.9km/h 76% 0.00in /  0mm 0 W/m2
19:04 29.8 °F /  -1.2 °C 23.2 °F /  -4.9 °C 30.16in /  1021.2hPa NNW 1.7mph /  2.7km/h 13mph /  20.9km/h 76% 0.00in /  0mm 0 W/m2
19:09 29.8 °F /  -1.2 °C 23.1 °F /  -4.9 °C 30.17in /  1021.6hPa NNW 2.1mph /  3.4km/h 12mph /  19.3km/h 76% 0.00in /  0mm 0 W/m2
19:14 29.7 °F /  -1.3 °C 23 °F /  -5 °C 30.17in /  1021.6hPa NNW 3.3mph /  5.3km/h 12mph /  19.3km/h 76% 0.00in /  0mm 0 W/m2
19:19 29.6 °F /  -1.3 °C 23 °F /  -5 °C 30.18in /  1021.9hPa NNW 2.4mph /  3.9km/h 12mph /  19.3km/h 76% 0.00in /  0mm 0 W/m2
19:24 29.5 °F /  -1.4 °C 22.9 °F /  -5.1 °C 30.18in /  1021.9hPa NNW 3.8mph /  6.1km/h 12mph /  19.3km/h 76% 0.00in /  0mm 0 W/m2
19:29 29.4 °F /  -1.4 °C 22.7 °F /  -5.2 °C 30.18in /  1021.9hPa NNW 2.9mph /  4.7km/h 14mph /  22.5km/h 75.7% 0.00in /  0mm 0 W/m2
19:34 29.4 °F /  -1.4 °C 22.5 °F /  -5.3 °C 30.18in /  1021.9hPa NW 2.3mph /  3.7km/h 14mph /  22.5km/h 75% 0.00in /  0mm 0 W/m2
19:39 29.3 °F /  -1.5 °C 22.4 °F /  -5.3 °C 30.19in /  1022.2hPa NNW 1.8mph /  2.9km/h 12mph /  19.3km/h 75% 0.00in /  0mm 0 W/m2
19:44 29.3 °F /  -1.5 °C 22.4 °F /  -5.3 °C 30.19in /  1022.2hPa NW 2mph /  3.2km/h 12mph /  19.3km/h 75% 0.00in /  0mm 0 W/m2
19:49 29.2 °F /  -1.6 °C 22.3 °F /  -5.4 °C 30.19in /  1022.2hPa NNW 2.9mph /  4.7km/h 12mph /  19.3km/h 75.1% 0.00in /  0mm 0 W/m2
19:54 29.2 °F /  -1.6 °C 22.4 °F /  -5.3 °C 30.19in /  1022.2hPa NNW 2.2mph /  3.5km/h 12mph /  19.3km/h 75.6% 0.00in /  0mm 0 W/m2
19:59 29.1 °F /  -1.6 °C 22.5 °F /  -5.3 °C 30.19in /  1022.2hPa NNW 2.7mph /  4.3km/h 12mph /  19.3km/h 76% 0.00in /  0mm 0 W/m2
20:09 29 °F /  -1.7 °C 22.4 °F /  -5.3 °C 30.19in /  1022.2hPa NNW 1.8mph /  2.9km/h 10mph /  16.1km/h 76% 0.00in /  0mm 0 W/m2
20:14 28.9 °F /  -1.7 °C 22.3 °F /  -5.4 °C 30.20in /  1022.6hPa NNW 3.9mph /  6.3km/h 12mph /  19.3km/h 76% 0.00in /  0mm 0 W/m2
20:19 28.9 °F /  -1.7 °C 22.3 °F /  -5.4 °C 30.21in /  1022.9hPa NNW 1.2mph /  1.9km/h 12mph /  19.3km/h 76% 0.00in /  0mm 0 W/m2
20:24 28.8 °F /  -1.8 °C 22.2 °F /  -5.4 °C 30.21in /  1022.9hPa NNW 1.8mph /  2.9km/h 12mph /  19.3km/h 76% 0.00in /  0mm 0 W/m2
20:29 28.8 °F /  -1.8 °C 22.2 °F /  -5.4 °C 30.21in /  1022.9hPa NW 1.7mph /  2.7km/h 12mph /  19.3km/h 76% 0.00in /  0mm 0 W/m2
20:34 28.7 °F /  -1.8 °C 22.1 °F /  -5.5 °C 30.21in /  1022.9hPa NNW 1.4mph /  2.3km/h 12mph /  19.3km/h 76% 0.00in /  0mm 0 W/m2
20:39 28.7 °F /  -1.8 °C 22.1 °F /  -5.5 °C 30.21in /  1022.9hPa NNW 2.9mph /  4.7km/h 8mph /  12.9km/h 76% 0.00in /  0mm 0 W/m2
20:44 28.6 °F /  -1.9 °C 22 °F /  -5.6 °C 30.21in /  1022.9hPa NW 3.9mph /  6.3km/h 12mph /  19.3km/h 76% 0.00in /  0mm 0 W/m2
20:49 28.5 °F /  -1.9 °C 21.9 °F /  -5.6 °C 30.21in /  1022.9hPa NW 3.9mph /  6.3km/h 14mph /  22.5km/h 76% 0.00in /  0mm 0 W/m2
20:54 28.5 °F /  -1.9 °C 21.9 °F /  -5.6 °C 30.21in /  1022.9hPa NNW 2.2mph /  3.5km/h 14mph /  22.5km/h 76% 0.00in /  0mm 0 W/m2
20:59 28.5 °F /  -1.9 °C 21.9 °F /  -5.6 °C 30.21in /  1022.9hPa NNW 3.5mph /  5.6km/h 14mph /  22.5km/h 76% 0.00in /  0mm 0 W/m2
21:04 28.4 °F /  -2 °C 21.8 °F /  -5.7 °C 30.22in /  1023.2hPa NW 0.6mph /  1km/h 14mph /  22.5km/h 76% 0.00in /  0mm 0 W/m2
21:09 28.4 °F /  -2 °C 21.8 °F /  -5.7 °C 30.22in /  1023.2hPa NNW 2.1mph /  3.4km/h 7mph /  11.3km/h 76% 0.00in /  0mm 0 W/m2
21:14 28.3 °F /  -2.1 °C 21.6 °F /  -5.8 °C 30.22in /  1023.2hPa NW 3.3mph /  5.3km/h 11mph /  17.7km/h 75.7% 0.00in /  0mm 0 W/m2
21:19 28.3 °F /  -2.1 °C 21.4 °F /  -5.9 °C 30.22in /  1023.2hPa NNW 1.3mph /  2.1km/h 11mph /  17.7km/h 75% 0.00in /  0mm 0 W/m2
21:24 28.3 °F /  -2.1 °C 21.4 °F /  -5.9 °C 30.22in /  1023.2hPa NNW 1.2mph /  1.9km/h 11mph /  17.7km/h 75% 0.00in /  0mm 0 W/m2
21:29 28.2 °F /  -2.1 °C 21.3 °F /  -5.9 °C 30.22in /  1023.2hPa NNW 1.8mph /  2.9km/h 11mph /  17.7km/h 75% 0.00in /  0mm 0 W/m2
21:34 28.1 °F /  -2.2 °C 21.2 °F /  -6 °C 30.22in /  1023.2hPa NNW 1.3mph /  2.1km/h 11mph /  17.7km/h 75% 0.00in /  0mm 0 W/m2
21:39 28.1 °F /  -2.2 °C 21.2 °F /  -6 °C 30.22in /  1023.2hPa NNW 1.4mph /  2.3km/h 6mph /  9.7km/h 75% 0.00in /  0mm 0 W/m2
21:44 28 °F /  -2.2 °C 21.1 °F /  -6.1 °C 30.22in /  1023.2hPa NNW 1.6mph /  2.6km/h 7mph /  11.3km/h 75% 0.00in /  0mm 0 W/m2
21:49 27.9 °F /  -2.3 °C 21.1 °F /  -6.1 °C 30.22in /  1023.2hPa NNW 0.9mph /  1.4km/h 7mph /  11.3km/h 75% 0.00in /  0mm 0 W/m2
21:54 27.9 °F /  -2.3 °C 21 °F /  -6.1 °C 30.22in /  1023.2hPa NNW 0.6mph /  1km/h 7mph /  11.3km/h 75% 0.00in /  0mm 0 W/m2
21:59 27.8 °F /  -2.3 °C 21 °F /  -6.1 °C 30.22in /  1023.2hPa NNW 0.9mph /  1.4km/h 7mph /  11.3km/h 75.1% 0.00in /  0mm 0 W/m2
22:04 27.8 °F /  -2.3 °C 21 °F /  -6.1 °C 30.22in /  1023.2hPa NNW 2.2mph /  3.5km/h 7mph /  11.3km/h 75.5% 0.00in /  0mm 0 W/m2
22:09 27.7 °F /  -2.4 °C 21.1 °F /  -6.1 °C 30.22in /  1023.2hPa NNW 2.1mph /  3.4km/h 6mph /  9.7km/h 76% 0.00in /  0mm 0 W/m2
22:14 27.6 °F /  -2.4 °C 21 °F /  -6.1 °C 30.22in /  1023.2hPa NNW 0.7mph /  1.1km/h 7mph /  11.3km/h 76% 0.00in /  0mm 0 W/m2
22:19 27.5 °F /  -2.5 °C 21 °F /  -6.1 °C 30.22in /  1023.2hPa NNW 1.4mph /  2.3km/h 7mph /  11.3km/h 76% 0.00in /  0mm 0 W/m2
22:24 27.4 °F /  -2.6 °C 20.9 °F /  -6.2 °C 30.22in /  1023.2hPa NNW 0.6mph /  1km/h 7mph /  11.3km/h 76% 0.00in /  0mm 0 W/m2
22:29 27.4 °F /  -2.6 °C 20.8 °F /  -6.2 °C 30.22in /  1023.2hPa NNW 0.6mph /  1km/h 7mph /  11.3km/h 76% 0.00in /  0mm 0 W/m2
22:34 27.2 °F /  -2.7 °C 20.7 °F /  -6.3 °C 30.22in /  1023.2hPa NNW 0.3mph /  0.5km/h 7mph /  11.3km/h 76.1% 0.00in /  0mm 0 W/m2
22:39 27.2 °F /  -2.7 °C 20.9 °F /  -6.2 °C 30.22in /  1023.2hPa NNW 0.1mph /  0.2km/h 3mph /  4.8km/h 77% 0.00in /  0mm 0 W/m2
22:44 27 °F /  -2.8 °C 20.8 °F /  -6.2 °C 30.22in /  1023.2hPa NNW 0.3mph /  0.5km/h 4mph /  6.4km/h 77% 0.00in /  0mm 0 W/m2
22:49 26.9 °F /  -2.8 °C 20.7 °F /  -6.3 °C 30.22in /  1023.2hPa NNW 0.8mph /  1.3km/h 5mph /  8km/h 77% 0.00in /  0mm 0 W/m2
22:54 26.8 °F /  -2.9 °C 20.7 °F /  -6.3 °C 30.22in /  1023.2hPa NNW 0.9mph /  1.4km/h 5mph /  8km/h 77.3% 0.00in /  0mm 0 W/m2
22:59 26.7 °F /  -2.9 °C 20.8 °F /  -6.2 °C 30.22in /  1023.2hPa NNW 0.3mph /  0.5km/h 5mph /  8km/h 78% 0.00in /  0mm 0 W/m2
23:00 26.7 °F /  -2.9 °C 20.8 °F /  -6.2 °C 30.22in /  1023.2hPa Calm   5mph /  8km/h 78% 0.00in /  0mm 0 W/m2
23:09 26.6 °F /  -3 °C 20.7 °F /  -6.3 °C 30.22in /  1023.2hPa Calm     78% 0.00in /  0mm 0 W/m2
23:14 26.5 °F /  -3.1 °C 20.6 °F /  -6.3 °C 30.22in /  1023.2hPa Calm     78% 0.00in /  0mm 0 W/m2
23:19 26.4 °F /  -3.1 °C 20.6 °F /  -6.3 °C 30.22in /  1023.2hPa NNW 0.6mph /  1km/h 4mph /  6.4km/h 78.5% 0.00in /  0mm 0 W/m2
23:24 26.3 °F /  -3.2 °C 20.7 °F /  -6.3 °C 30.23in /  1023.6hPa NNW 0.6mph /  1km/h 4mph /  6.4km/h 79% 0.00in /  0mm 0 W/m2
23:29 26.3 °F /  -3.2 °C 20.6 °F /  -6.3 °C 30.23in /  1023.6hPa NNW 0.3mph /  0.5km/h 4mph /  6.4km/h 79% 0.00in /  0mm 0 W/m2
23:34 26.2 °F /  -3.2 °C 20.6 °F /  -6.3 °C 30.23in /  1023.6hPa NNW 1.2mph /  1.9km/h 5mph /  8km/h 79% 0.00in /  0mm 0 W/m2
23:39 26.2 °F /  -3.2 °C 20.5 °F /  -6.4 °C 30.23in /  1023.6hPa Calm   5mph /  8km/h 79% 0.00in /  0mm 0 W/m2
23:44 26.1 °F /  -3.3 °C 20.5 °F /  -6.4 °C 30.22in /  1023.2hPa Calm   5mph /  8km/h 79% 0.00in /  0mm 0 W/m2
23:48 26 °F /  -3.3 °C 20.4 °F /  -6.4 °C 30.22in /  1023.2hPa NNW 0.1mph /  0.2km/h 5mph /  8km/h 79% 0.00in /  0mm 0 W/m2
Hartford County Weather
Compliments of Weather Underground - 2 mb